Archival Weather

Yakutsk

Yakutsk, Russia (UEEE)

Report from: Thursday, January 26, 2023 12:30 PM JST
Current time: Friday, April 19, 2024 6:38 PM JST

Current weather – Weather history – Daily summaries
Weather forecast

Present weatherFog
Temperature-46.0°C (-50.8°F)
Dew point-50.0°C (-58.0°F)
Winds Calm
Visibility1476.4 ft. (450 m)
Clouds Ceiling: Vertical visibility 300 ft. (91 m)
Altimeter30.39 in.Hg (1029 mB)
Precip. events QB 3:30 AM
QF 2:43 PM
Relative humidity63 %
Density altitude-8,897 ft. (-2,712 m)
Remarks No significant changes expected in the next two hours
Flight conditions Low Instrument Meteorological Conditions
Raw dataUEEE 260330Z 00000MPS 0450 0300NE R23L/0350N FG VV003 M46/M50 Q1029 R23L/490150 NOSIG RMK QBB090 QFE763
An error has occurred. This application may no longer respond until reloaded. Reload 🗙